»·PEaware :: VTE250 KCOS-KASE

VTE250 :: KCOS-KASE

FLIGHT INFORMATION

Flight Status: Arrived
Operator: Unknown
More flights by this operator :: More flights under this callsign
Pilot: Anonymous 13363 (13363)
Aircraft: AIRBUS A320
(A320)
More flights by this aircraft type
Origin: KCOS City Of Colorado Springs Mun
United States
Destination: KASE Aspen-Pitkin Co/Sardy
United States
More flights between these airports :: More routes between these airports
Route: BRK FQF J80 DBL
File this flight plan on PilotEdge
Remarks:
Altitude:
(Current/Filed)
22,000ft
Speed:
(Current/Filed)
470kts
Departed: 03-Jan-18 06:46 PM
Arrived: 03-Jan-18 07:38 PM
Distance/Time
Traveled:
104nm/0:52
Distance/Time
To Go:
Arrived

Flight Plot

Page will automatically refresh every two minutes.

Flight plan parsing failed; only flown route is shown


Map Options




Map Legend


Flown Route
Filed Route
Departure Airport
Arrival Airport
Navaid (VOR, NDB)
Fix

Horizontal Profiles

Position Reports

Time Latitude Longitude Heading Altitude Ground
Speed
03-Jan-18 18:24 38.798635 -104.698563 90 6104ft 0kts
03-Jan-18 18:25 38.798635 -104.698563 90 6104ft 0kts
03-Jan-18 18:26 38.798635 -104.698563 90 6104ft 0kts
03-Jan-18 18:27 38.798635 -104.698563 90 6104ft 0kts
03-Jan-18 18:28 38.798635 -104.698563 90 6104ft 0kts
03-Jan-18 18:29 38.798635 -104.698563 90 6104ft 0kts
03-Jan-18 18:30 38.798635 -104.698563 90 6104ft 0kts
03-Jan-18 18:31 38.798635 -104.698563 90 6104ft 0kts
03-Jan-18 18:32 38.798635 -104.698563 90 6104ft 0kts
03-Jan-18 18:33 38.798635 -104.698563 90 6104ft 0kts
03-Jan-18 18:34 38.798635 -104.698563 90 6104ft 0kts
03-Jan-18 18:35 38.798635 -104.698563 90 6104ft 0kts
03-Jan-18 18:36 38.798635 -104.698563 89 6104ft 0kts
03-Jan-18 18:37 38.798635 -104.698563 90 6104ft 0kts
03-Jan-18 18:38 38.798635 -104.698563 90 6104ft 0kts
03-Jan-18 18:39 38.798858 -104.698722 316 6104ft 3kts
03-Jan-18 18:40 38.800286 -104.698827 99 6104ft 7kts
03-Jan-18 18:41 38.802316 -104.697316 0 6104ft 12kts
03-Jan-18 18:42 38.805710 -104.697273 52 6104ft 1kts
03-Jan-18 18:43 38.807026 -104.695253 43 6106ft 14kts
03-Jan-18 18:44 38.809174 -104.692424 43 6110ft 0kts
03-Jan-18 18:45 38.810201 -104.691149 45 6104ft 5kts
03-Jan-18 18:46 38.811799 -104.689100 42 6104ft 11kts
03-Jan-18 18:47 38.814326 -104.687727 5 6104ft 10kts
03-Jan-18 18:48 38.815949 -104.686857 92 6104ft 0kts
03-Jan-18 18:49 38.815949 -104.686857 92 6104ft 0kts
03-Jan-18 18:50 38.815951 -104.686238 87 6104ft 6kts
03-Jan-18 18:51 38.814677 -104.685757 179 6104ft 40kts
03-Jan-18 18:52 38.772419 -104.684978 179 6766ft 213kts
03-Jan-18 18:53 38.709750 -104.685643 180 9272ft 255kts
03-Jan-18 18:54 38.630903 -104.686518 179 12024ft 282kts
03-Jan-18 18:55 38.553906 -104.665072 128 14416ft 311kts
03-Jan-18 18:56 38.562346 -104.561535 29 15450ft 335kts
03-Jan-18 18:57 38.650294 -104.557968 344 16559ft 354kts
03-Jan-18 18:58 38.747770 -104.583048 344 18535ft 363kts
03-Jan-18 18:59 38.846725 -104.608431 344 20264ft 371kts
03-Jan-18 19:00 38.948413 -104.632591 350 21782ft 384kts
03-Jan-18 19:01 39.056900 -104.631734 354 22268ft 403kts
03-Jan-18 19:02 39.163925 -104.629938 354 22274ft 404kts
03-Jan-18 19:03 39.264548 -104.628270 355 22273ft 407kts
03-Jan-18 19:04 39.364850 -104.626580 355 22273ft 404kts
03-Jan-18 19:05 39.470633 -104.647476 322 22210ft 391kts
03-Jan-18 19:06 39.510364 -104.771149 271 22209ft 400kts
03-Jan-18 19:07 39.506546 -104.912868 271 22220ft 402kts
03-Jan-18 19:08 39.503412 -105.032319 271 22220ft 401kts
03-Jan-18 19:09 39.499056 -105.193735 271 22223ft 407kts
03-Jan-18 19:10 39.495184 -105.330505 271 22248ft 407kts
03-Jan-18 19:11 39.491821 -105.445284 271 22271ft 411kts
03-Jan-18 19:12 39.486689 -105.613840 270 22332ft 421kts
03-Jan-18 19:13 39.482809 -105.735192 269 22326ft 420kts
03-Jan-18 19:14 39.478298 -105.872225 269 22327ft 421kts
03-Jan-18 19:15 39.473373 -106.016563 269 22327ft 421kts
03-Jan-18 19:16 39.467213 -106.190056 269 22321ft 417kts
03-Jan-18 19:17 39.462831 -106.307395 270 21503ft 374kts
03-Jan-18 19:18 39.458009 -106.433866 270 20324ft 330kts
03-Jan-18 19:19 39.453445 -106.553459 270 18287ft 342kts
03-Jan-18 19:20 39.448648 -106.674008 267 16276ft 337kts
03-Jan-18 19:21 39.443855 -106.790996 266 15575ft 329kts
03-Jan-18 19:22 39.437016 -106.899686 250 14367ft 283kts
03-Jan-18 19:23 39.401778 -106.978936 204 13554ft 227kts
03-Jan-18 19:24 39.360978 -106.950463 132 12728ft 165kts
03-Jan-18 19:25 39.326033 -106.917808 165 10964ft 169kts
03-Jan-18 19:26 39.280722 -106.898539 185 9921ft 178kts
03-Jan-18 19:27 39.265937 -106.952529 291 12323ft 206kts
03-Jan-18 19:28 39.308657 -107.007178 324 14412ft 243kts
03-Jan-18 19:29 39.357653 -107.078911 305 13947ft 297kts
03-Jan-18 19:30 39.391688 -107.190551 264 14038ft 370kts
03-Jan-18 19:31 39.358517 -107.315662 260 14118ft 372kts
03-Jan-18 19:32 39.390585 -107.439755 279 14111ft 373kts
03-Jan-18 19:33 39.359809 -107.546669 209 14119ft 324kts
03-Jan-18 19:34 39.292851 -107.520313 107 14126ft 273kts
03-Jan-18 19:35 39.306411 -107.426090 74 15124ft 272kts
03-Jan-18 19:36 39.331197 -107.322410 61 15128ft 335kts
03-Jan-18 19:37 39.395438 -107.227261 62 15144ft 374kts
03-Jan-18 19:38 39.430945 -107.105433 70 14442ft 352kts
03-Jan-18 19:39 39.424600 -106.993390 129 13107ft 302kts
03-Jan-18 19:40 39.369336 -106.938935 158 12915ft 214kts
03-Jan-18 19:41 39.318575 -106.917077 159 10779ft 191kts
03-Jan-18 19:42 39.271366 -106.891960 160 8575ft 175kts
03-Jan-18 19:43 39.230532 -106.872186 160 7785ft 145kts
03-Jan-18 19:44 39.218770 -106.865756 97 7782ft 5kts
03-Jan-18 19:45 39.219453 -106.865673 338 7782ft 3kts
03-Jan-18 19:46 39.220852 -106.865434 52 7782ft 5kts
03-Jan-18 19:47 39.221122 -106.865819 251 7782ft 0kts
03-Jan-18 19:48 39.221122 -106.865819 251 7782ft 0kts
03-Jan-18 19:49 39.221122 -106.865819 251 7782ft 0kts
03-Jan-18 19:50 39.221122 -106.865819 251 7782ft 0kts
03-Jan-18 19:51 39.221122 -106.865819 251 7782ft 0kts
03-Jan-18 19:52 39.221122 -106.865819 251 7782ft 0kts
03-Jan-18 19:53 39.221122 -106.865819 251 7782ft 0kts

Navigation Log

Ident Type
Flight plan parsing failed, navigation log unavailable